Arcadia, Nebraska
Current Conditions -  °F | °C
As of 8:53 AM on Sunday 23 Nov 2014 (Local Time) from KODX Reporting Station
Overcast Overcast  
Wind Chill:   Ceiling: 3800
Heat Index:   Visibility: 10mi
Dew Point:   Wind: 16mph
Humidity: 68%   Direction: 330°NNW
Pressure: 29.62"   Gusts: 23mph
Location:  41.42°N, 99.13°W
Report Text: KODX 231453Z AUTO 33014G20KT 10SM OVC038 06/01 A2962 RMK AO2 PK WND 33026/1426 RAB16E45 SLP045 P0000 60000 T00610006 53033
Loading
Personal Weather Stations






























Interactive Weather Map New forecast layout! Learn more

10-Day Weather Forecast

Advertisements
Track Severe Weather on mobile